sensor_id;sensor_type;location;lat;lon;timestamp;P1;durP1;ratioP1;P2;durP2;ratioP2
82773;SDS011;72508;45.118;20.728;2024-01-30T00:01:44;22.48;;;11.05;;
82773;SDS011;72508;45.118;20.728;2024-01-30T00:22:08;24.52;;;9.98;;
82773;SDS011;72508;45.118;20.728;2024-01-30T00:32:10;29.02;;;15.75;;
82773;SDS011;72508;45.118;20.728;2024-01-30T00:42:11;27.73;;;10.38;;
82773;SDS011;72508;45.118;20.728;2024-01-30T00:52:13;23.38;;;8.85;;
82773;SDS011;72508;45.118;20.728;2024-01-30T01:02:15;23.50;;;8.10;;
82773;SDS011;72508;45.118;20.728;2024-01-30T01:12:18;20.20;;;8.02;;
82773;SDS011;72508;45.118;20.728;2024-01-30T01:22:20;16.73;;;6.50;;
82773;SDS011;72508;45.118;20.728;2024-01-30T01:43:02;18.38;;;7.82;;
82773;SDS011;72508;45.118;20.728;2024-01-30T01:53:07;18.70;;;8.40;;
82773;SDS011;72508;45.118;20.728;2024-01-30T02:03:10;18.25;;;7.72;;
82773;SDS011;72508;45.118;20.728;2024-01-30T02:13:31;16.02;;;7.55;;
82773;SDS011;72508;45.118;20.728;2024-01-30T02:23:33;12.60;;;6.65;;
82773;SDS011;72508;45.118;20.728;2024-01-30T02:33:49;14.32;;;5.72;;
82773;SDS011;72508;45.118;20.728;2024-01-30T02:43:50;15.48;;;8.50;;
82773;SDS011;72508;45.118;20.728;2024-01-30T02:53:52;12.88;;;6.13;;
82773;SDS011;72508;45.118;20.728;2024-01-30T03:03:54;13.98;;;5.20;;
82773;SDS011;72508;45.118;20.728;2024-01-30T03:13:55;17.67;;;9.70;;
82773;SDS011;72508;45.118;20.728;2024-01-30T03:24:12;13.57;;;5.15;;
82773;SDS011;72508;45.118;20.728;2024-01-30T03:34:22;12.15;;;6.15;;
82773;SDS011;72508;45.118;20.728;2024-01-30T03:44:24;14.75;;;5.47;;
82773;SDS011;72508;45.118;20.728;2024-01-30T03:54:26;14.82;;;5.07;;
82773;SDS011;72508;45.118;20.728;2024-01-30T04:04:27;11.05;;;4.90;;
82773;SDS011;72508;45.118;20.728;2024-01-30T04:14:29;13.75;;;4.57;;
82773;SDS011;72508;45.118;20.728;2024-01-30T04:24:31;14.60;;;6.00;;
82773;SDS011;72508;45.118;20.728;2024-01-30T04:34:33;14.88;;;6.40;;
82773;SDS011;72508;45.118;20.728;2024-01-30T04:44:35;14.88;;;5.13;;
82773;SDS011;72508;45.118;20.728;2024-01-30T04:54:37;16.50;;;6.47;;
82773;SDS011;72508;45.118;20.728;2024-01-30T05:04:40;11.30;;;4.50;;
82773;SDS011;72508;45.118;20.728;2024-01-30T05:14:42;16.67;;;6.68;;
82773;SDS011;72508;45.118;20.728;2024-01-30T05:24:43;21.67;;;6.53;;
82773;SDS011;72508;45.118;20.728;2024-01-30T05:45:27;11.25;;;5.15;;
82773;SDS011;72508;45.118;20.728;2024-01-30T06:16:11;13.48;;;4.93;;
82773;SDS011;72508;45.118;20.728;2024-01-30T06:26:13;17.92;;;9.57;;
82773;SDS011;72508;45.118;20.728;2024-01-30T06:36:15;18.05;;;9.70;;
82773;SDS011;72508;45.118;20.728;2024-01-30T06:56:22;47.42;;;18.17;;
82773;SDS011;72508;45.118;20.728;2024-01-30T07:06:44;27.17;;;9.65;;
82773;SDS011;72508;45.118;20.728;2024-01-30T07:16:46;51.13;;;18.55;;
82773;SDS011;72508;45.118;20.728;2024-01-30T07:27:07;39.40;;;16.30;;
82773;SDS011;72508;45.118;20.728;2024-01-30T07:37:09;43.08;;;19.60;;
82773;SDS011;72508;45.118;20.728;2024-01-30T07:47:13;31.98;;;13.05;;
82773;SDS011;72508;45.118;20.728;2024-01-30T07:57:14;21.08;;;11.38;;
82773;SDS011;72508;45.118;20.728;2024-01-30T08:07:17;28.45;;;12.10;;
82773;SDS011;72508;45.118;20.728;2024-01-30T08:28:01;24.85;;;10.57;;
82773;SDS011;72508;45.118;20.728;2024-01-30T08:38:03;16.92;;;6.72;;
82773;SDS011;72508;45.118;20.728;2024-01-30T08:48:05;10.55;;;4.15;;
82773;SDS011;72508;45.118;20.728;2024-01-30T08:58:07;16.25;;;7.03;;
82773;SDS011;72508;45.118;20.728;2024-01-30T09:18:12;14.60;;;6.05;;
82773;SDS011;72508;45.118;20.728;2024-01-30T09:28:15;16.02;;;6.43;;
82773;SDS011;72508;45.118;20.728;2024-01-30T09:38:16;12.68;;;4.55;;
82773;SDS011;72508;45.118;20.728;2024-01-30T09:48:38;15.88;;;8.60;;
82773;SDS011;72508;45.118;20.728;2024-01-30T09:58:42;11.70;;;4.68;;
82773;SDS011;72508;45.118;20.728;2024-01-30T10:08:59;12.52;;;6.10;;
82773;SDS011;72508;45.118;20.728;2024-01-30T10:19:01;16.00;;;6.93;;
82773;SDS011;72508;45.118;20.728;2024-01-30T10:29:04;10.98;;;4.85;;
82773;SDS011;72508;45.118;20.728;2024-01-30T10:39:09;12.48;;;4.90;;
82773;SDS011;72508;45.118;20.728;2024-01-30T10:49:12;10.23;;;3.97;;
82773;SDS011;72508;45.118;20.728;2024-01-30T10:59:35;11.10;;;4.53;;
82773;SDS011;72508;45.118;20.728;2024-01-30T11:09:37;12.85;;;5.50;;
82773;SDS011;72508;45.118;20.728;2024-01-30T11:19:42;17.15;;;6.47;;
82773;SDS011;72508;45.118;20.728;2024-01-30T11:29:50;11.80;;;7.30;;
82773;SDS011;72508;45.118;20.728;2024-01-30T11:39:53;12.25;;;6.00;;
82773;SDS011;72508;45.118;20.728;2024-01-30T11:49:55;14.18;;;8.57;;
82773;SDS011;72508;45.118;20.728;2024-01-30T11:59:57;23.40;;;9.25;;
82773;SDS011;72508;45.118;20.728;2024-01-30T12:10:10;11.90;;;6.25;;
82773;SDS011;72508;45.118;20.728;2024-01-30T12:20:58;19.80;;;8.73;;
82773;SDS011;72508;45.118;20.728;2024-01-30T12:30:56;9.90;;;4.40;;
82773;SDS011;72508;45.118;20.728;2024-01-30T12:41:03;9.52;;;4.38;;
82773;SDS011;72508;45.118;20.728;2024-01-30T12:51:09;16.20;;;6.53;;
82773;SDS011;72508;45.118;20.728;2024-01-30T13:01:10;10.15;;;4.47;;
82773;SDS011;72508;45.118;20.728;2024-01-30T13:11:12;11.25;;;6.38;;
82773;SDS011;72508;45.118;20.728;2024-01-30T13:21:13;9.20;;;4.30;;
82773;SDS011;72508;45.118;20.728;2024-01-30T13:41:58;8.65;;;3.88;;
82773;SDS011;72508;45.118;20.728;2024-01-30T13:51:59;191.70;;;105.97;;
82773;SDS011;72508;45.118;20.728;2024-01-30T14:02:01;8.52;;;5.13;;
82773;SDS011;72508;45.118;20.728;2024-01-30T14:12:03;16.95;;;7.72;;
82773;SDS011;72508;45.118;20.728;2024-01-30T14:22:04;20.88;;;11.25;;
82773;SDS011;72508;45.118;20.728;2024-01-30T14:32:07;9.90;;;3.97;;
82773;SDS011;72508;45.118;20.728;2024-01-30T14:53:04;10.52;;;5.32;;
82773;SDS011;72508;45.118;20.728;2024-01-30T15:03:05;16.25;;;6.63;;
82773;SDS011;72508;45.118;20.728;2024-01-30T15:13:08;23.80;;;8.65;;
82773;SDS011;72508;45.118;20.728;2024-01-30T15:23:24;29.65;;;11.18;;
82773;SDS011;72508;45.118;20.728;2024-01-30T15:33:25;67.18;;;34.63;;
82773;SDS011;72508;45.118;20.728;2024-01-30T15:43:27;49.42;;;18.85;;
82773;SDS011;72508;45.118;20.728;2024-01-30T15:53:29;70.97;;;27.58;;
82773;SDS011;72508;45.118;20.728;2024-01-30T16:03:31;69.80;;;28.73;;
82773;SDS011;72508;45.118;20.728;2024-01-30T16:13:42;92.72;;;37.13;;
82773;SDS011;72508;45.118;20.728;2024-01-30T16:23:43;119.05;;;49.35;;
82773;SDS011;72508;45.118;20.728;2024-01-30T16:33:46;128.45;;;53.25;;
82773;SDS011;72508;45.118;20.728;2024-01-30T16:43:49;139.07;;;54.10;;
82773;SDS011;72508;45.118;20.728;2024-01-30T16:53:50;146.40;;;53.15;;
82773;SDS011;72508;45.118;20.728;2024-01-30T17:03:52;88.28;;;37.20;;
82773;SDS011;72508;45.118;20.728;2024-01-30T17:13:53;104.32;;;41.85;;
82773;SDS011;72508;45.118;20.728;2024-01-30T17:34:08;273.58;;;83.18;;
82773;SDS011;72508;45.118;20.728;2024-01-30T17:44:29;158.35;;;53.30;;
82773;SDS011;72508;45.118;20.728;2024-01-30T18:14:34;54.38;;;19.63;;
82773;SDS011;72508;45.118;20.728;2024-01-30T18:24:35;61.03;;;22.67;;
82773;SDS011;72508;45.118;20.728;2024-01-30T18:34:37;48.80;;;18.92;;
82773;SDS011;72508;45.118;20.728;2024-01-30T18:44:39;44.35;;;17.80;;
82773;SDS011;72508;45.118;20.728;2024-01-30T18:54:41;28.73;;;12.70;;
82773;SDS011;72508;45.118;20.728;2024-01-30T19:15:38;33.17;;;13.23;;
82773;SDS011;72508;45.118;20.728;2024-01-30T19:25:40;26.58;;;15.00;;
82773;SDS011;72508;45.118;20.728;2024-01-30T19:35:41;22.60;;;10.73;;
82773;SDS011;72508;45.118;20.728;2024-01-30T19:45:43;24.63;;;12.50;;
82773;SDS011;72508;45.118;20.728;2024-01-30T19:56:14;56.85;;;19.55;;
82773;SDS011;72508;45.118;20.728;2024-01-30T20:06:18;100.50;;;32.55;;
82773;SDS011;72508;45.118;20.728;2024-01-30T20:16:19;111.28;;;35.30;;
82773;SDS011;72508;45.118;20.728;2024-01-30T20:26:35;57.47;;;21.65;;
82773;SDS011;72508;45.118;20.728;2024-01-30T20:36:37;54.13;;;21.13;;
82773;SDS011;72508;45.118;20.728;2024-01-30T20:46:42;36.20;;;16.83;;
82773;SDS011;72508;45.118;20.728;2024-01-30T20:56:44;30.05;;;17.08;;
82773;SDS011;72508;45.118;20.728;2024-01-30T21:06:48;28.83;;;12.40;;
82773;SDS011;72508;45.118;20.728;2024-01-30T21:17:10;38.92;;;15.88;;
82773;SDS011;72508;45.118;20.728;2024-01-30T21:27:11;92.13;;;28.70;;
82773;SDS011;72508;45.118;20.728;2024-01-30T21:37:13;54.58;;;20.98;;
82773;SDS011;72508;45.118;20.728;2024-01-30T21:47:15;189.65;;;50.03;;
82773;SDS011;72508;45.118;20.728;2024-01-30T21:57:16;118.57;;;37.42;;
82773;SDS011;72508;45.118;20.728;2024-01-30T22:07:28;101.75;;;35.80;;
82773;SDS011;72508;45.118;20.728;2024-01-30T22:17:29;46.58;;;19.70;;
82773;SDS011;72508;45.118;20.728;2024-01-30T22:27:31;22.05;;;11.20;;
82773;SDS011;72508;45.118;20.728;2024-01-30T22:37:32;20.27;;;10.73;;
82773;SDS011;72508;45.118;20.728;2024-01-30T22:47:34;22.95;;;9.45;;
82773;SDS011;72508;45.118;20.728;2024-01-30T22:57:36;21.75;;;10.57;;
82773;SDS011;72508;45.118;20.728;2024-01-30T23:17:43;20.05;;;10.18;;
82773;SDS011;72508;45.118;20.728;2024-01-30T23:27:44;21.40;;;9.98;;
82773;SDS011;72508;45.118;20.728;2024-01-30T23:37:46;21.42;;;8.65;;
82773;SDS011;72508;45.118;20.728;2024-01-30T23:47:48;16.55;;;6.80;;
82773;SDS011;72508;45.118;20.728;2024-01-30T23:57:49;20.73;;;8.75;;
